createdAt,value
2022-09-03T00:00:14.719Z,2.17
2022-09-03T00:02:50.844Z,2.23
2022-09-03T00:05:27.508Z,2.40
2022-09-03T00:08:04.803Z,1.57
2022-09-03T00:10:43.862Z,1.77
2022-09-03T00:13:20.368Z,1.98
2022-09-03T00:15:54.857Z,1.50
2022-09-03T00:18:30.985Z,1.60
2022-09-03T00:21:08.771Z,1.90
2022-09-03T00:23:48.251Z,1.87
2022-09-03T00:26:26.628Z,1.75
2022-09-03T00:29:03.870Z,2.17
2022-09-03T00:31:40.482Z,2.20
2022-09-03T00:34:17.674Z,2.27
2022-09-03T00:36:50.916Z,1.75
2022-09-03T00:39:26.389Z,2.30
2022-09-03T00:42:08.156Z,2.20
2022-09-03T00:44:57.137Z,2.42
2022-09-03T00:47:33.867Z,2.92
2022-09-03T00:50:13.115Z,2.60
2022-09-03T00:52:52.567Z,2.40
2022-09-03T00:55:31.151Z,2.45
2022-09-03T00:58:17.388Z,2.67
2022-09-03T01:00:52.964Z,2.45
2022-09-03T01:03:30.465Z,2.62
2022-09-03T01:06:17.012Z,2.00
2022-09-03T01:09:16.654Z,1.80
2022-09-03T01:11:56.580Z,2.10
2022-09-03T01:14:35.954Z,1.65
2022-09-03T01:17:13.783Z,1.77
2022-09-03T01:20:03.519Z,2.15
2022-09-03T01:23:04.538Z,1.80
2022-09-03T01:25:48.847Z,1.50
2022-09-03T01:28:37.146Z,1.70
2022-09-03T01:31:16.455Z,2.10
2022-09-03T01:33:55.044Z,1.72
2022-09-03T01:36:32.279Z,1.50
2022-09-03T01:39:08.230Z,1.95
2022-09-03T01:42:05.745Z,1.98
2022-09-03T01:44:44.758Z,1.60
2022-09-03T01:47:22.538Z,1.60
2022-09-03T01:49:59.666Z,1.85
2022-09-03T01:52:39.357Z,1.70
2022-09-03T01:55:18.910Z,1.67
2022-09-03T01:57:57.364Z,1.82
2022-09-03T02:00:32.596Z,1.70
2022-09-03T02:03:08.523Z,1.90
2022-09-03T02:05:43.088Z,1.40
2022-09-03T02:08:16.105Z,1.22
2022-09-03T02:10:52.082Z,1.77
2022-09-03T02:16:14.553Z,1.37
2022-09-03T02:18:51.019Z,1.35
2022-09-03T02:21:26.094Z,1.40
2022-09-03T02:23:59.451Z,1.55
2022-09-03T02:26:32.562Z,1.60
2022-09-03T02:29:05.920Z,1.32
2022-09-03T02:31:38.991Z,1.35
2022-09-03T02:34:12.216Z,1.22
2022-09-03T02:36:47.065Z,1.27
2022-09-03T02:39:20.115Z,1.15
2022-09-03T02:41:57.397Z,1.62
2022-09-03T02:44:32.973Z,2.02
2022-09-03T02:47:08.604Z,1.90
2022-09-03T02:49:41.566Z,1.77
2022-09-03T02:52:14.496Z,1.40
2022-09-03T02:54:47.790Z,1.82
2022-09-03T02:57:27.421Z,1.75
2022-09-03T02:59:56.601Z,1.42
2022-09-03T03:02:29.807Z,1.25
2022-09-03T03:05:03.155Z,1.72
2022-09-03T03:07:39.388Z,1.65
2022-09-03T03:10:13.608Z,1.60
2022-09-03T03:12:46.864Z,1.82
2022-09-03T03:15:21.071Z,2.55
2022-09-03T03:17:54.265Z,1.37
2022-09-03T03:20:27.769Z,1.77
2022-09-03T03:23:02.383Z,1.60
2022-09-03T03:25:35.644Z,1.72
2022-09-03T03:28:10.292Z,1.30
2022-09-03T03:30:45.764Z,2.08
2022-09-03T03:33:19.101Z,1.02
2022-09-03T03:35:52.292Z,1.85
2022-09-03T03:38:25.725Z,1.55
2022-09-03T03:41:01.587Z,1.55
2022-09-03T03:43:36.391Z,1.70
2022-09-03T03:46:10.903Z,1.55
2022-09-03T03:48:44.354Z,1.67
2022-09-03T03:51:17.785Z,1.70
2022-09-03T03:53:52.695Z,1.30
2022-09-03T03:56:29.017Z,1.52
2022-09-03T03:59:03.074Z,2.02
2022-09-03T04:01:36.394Z,1.50
2022-09-03T04:04:09.733Z,1.80
2022-09-03T04:06:43.264Z,1.50
2022-09-03T04:09:16.567Z,1.60
2022-09-03T04:11:50.712Z,1.75
2022-09-03T04:14:23.876Z,1.62
2022-09-03T04:16:57.537Z,1.98
2022-09-03T04:19:30.727Z,1.90
2022-09-03T04:22:04.395Z,1.65
2022-09-03T04:24:39.663Z,1.90
2022-09-03T04:27:15.345Z,2.12
2022-09-03T04:29:48.493Z,1.90
2022-09-03T04:32:39.414Z,2.10
2022-09-03T04:35:12.967Z,2.27
2022-09-03T04:37:46.273Z,2.40
2022-09-03T04:40:19.887Z,2.40
2022-09-03T04:42:54.686Z,2.60
2022-09-03T04:45:29.028Z,2.45
2022-09-03T04:48:03.774Z,2.87
2022-09-03T04:50:37.039Z,2.92
2022-09-03T04:53:10.509Z,2.60
2022-09-03T04:55:43.701Z,1.60
2022-09-03T04:58:16.973Z,2.77
2022-09-03T05:00:51.886Z,2.22
2022-09-03T05:03:25.251Z,1.92
2022-09-03T05:05:59.715Z,1.90
2022-09-03T05:08:34.988Z,1.35
2022-09-03T05:11:09.187Z,2.00
2022-09-03T05:13:42.394Z,1.70
2022-09-03T05:16:15.591Z,1.47
2022-09-03T05:18:49.978Z,1.90
2022-09-03T05:21:24.705Z,1.87
2022-09-03T05:23:57.955Z,1.85
2022-09-03T05:26:36.203Z,1.27
2022-09-03T05:29:10.943Z,1.42
2022-09-03T05:31:44.237Z,1.92
2022-09-03T05:34:19.796Z,1.70
2022-09-03T05:36:56.274Z,1.90
2022-09-03T05:39:29.822Z,1.52
2022-09-03T05:42:03.045Z,1.30
2022-09-03T05:44:39.395Z,1.82
2022-09-03T05:47:13.134Z,1.35
2022-09-03T05:49:46.674Z,1.52
2022-09-03T05:52:22.144Z,1.50
2022-09-03T05:54:55.498Z,1.47
2022-09-03T06:00:19.083Z,1.50
2022-09-03T06:02:54.394Z,1.30
2022-09-03T06:05:31.612Z,1.20
2022-09-03T06:08:06.758Z,1.65
2022-09-03T06:10:41.247Z,1.37
2022-09-03T06:13:15.078Z,1.60
2022-09-03T06:15:48.561Z,1.72
2022-09-03T06:18:26.838Z,1.65
2022-09-03T06:21:05.760Z,1.40
2022-09-03T06:23:41.047Z,1.72
2022-09-03T06:26:16.499Z,2.00
2022-09-03T06:28:50.332Z,1.50
2022-09-03T06:31:24.271Z,1.60
2022-09-03T06:34:03.371Z,1.35
2022-09-03T06:36:33.935Z,0.90
2022-09-03T06:39:07.273Z,1.42
2022-09-03T06:41:40.478Z,1.10
2022-09-03T06:44:15.419Z,1.00
2022-09-03T06:46:48.867Z,1.07
2022-09-03T06:49:22.427Z,1.60
2022-09-03T06:51:55.713Z,1.00
2022-09-03T06:54:29.114Z,1.40
2022-09-03T06:57:03.789Z,0.70
2022-09-03T06:59:36.997Z,0.93
2022-09-03T07:02:10.586Z,1.57
2022-09-03T07:04:44.269Z,1.40
2022-09-03T07:07:17.522Z,1.10
2022-09-03T07:09:50.855Z,1.15
2022-09-03T07:12:24.037Z,0.95
2022-09-03T07:14:57.152Z,1.45
2022-09-03T07:17:30.342Z,1.22
2022-09-03T07:20:03.692Z,1.05
2022-09-03T07:22:36.973Z,0.70
2022-09-03T07:25:11.658Z,1.27
2022-09-03T07:27:45.019Z,0.80
2022-09-03T07:30:19.804Z,0.70
2022-09-03T07:32:54.250Z,0.70
2022-09-03T07:35:27.787Z,0.90
2022-09-03T07:38:01.236Z,0.60
2022-09-03T07:40:34.461Z,0.68
2022-09-03T07:43:07.948Z,0.82
2022-09-03T07:45:41.412Z,0.60
2022-09-03T07:48:16.834Z,0.72
2022-09-03T07:50:50.041Z,0.93
2022-09-03T07:53:23.285Z,0.47
2022-09-03T07:55:57.194Z,0.62
2022-09-03T07:58:33.052Z,0.60
2022-09-03T08:01:11.289Z,0.50
2022-09-03T08:03:47.797Z,0.70
2022-09-03T08:06:23.002Z,0.70
2022-09-03T08:09:04.662Z,0.60
2022-09-03T08:11:37.197Z,0.60
2022-09-03T08:14:12.775Z,0.55
2022-09-03T08:16:48.390Z,0.50
2022-09-03T08:19:25.046Z,1.02
2022-09-03T08:21:58.969Z,0.65
2022-09-03T08:24:34.491Z,0.55
2022-09-03T08:27:10.859Z,0.45
2022-09-03T08:29:45.990Z,0.55
2022-09-03T08:32:20.269Z,0.68
2022-09-03T08:34:55.732Z,0.70
2022-09-03T08:37:30.023Z,0.50
2022-09-03T08:40:05.313Z,0.75
2022-09-03T08:42:49.018Z,0.55
2022-09-03T08:45:24.623Z,0.72
2022-09-03T08:48:02.197Z,0.57
2022-09-03T08:50:38.717Z,0.40
2022-09-03T08:53:16.179Z,0.55
2022-09-03T08:55:54.167Z,0.50
2022-09-03T08:58:29.439Z,0.40
2022-09-03T09:01:05.639Z,0.60
2022-09-03T09:03:48.142Z,0.40
2022-09-03T09:06:25.887Z,0.20
2022-09-03T09:09:07.320Z,0.30
2022-09-03T09:11:49.785Z,0.53
2022-09-03T09:14:26.880Z,0.50
2022-09-03T09:17:04.368Z,0.33
2022-09-03T09:22:17.796Z,0.60
2022-09-03T09:24:53.479Z,0.30
2022-09-03T09:27:27.415Z,0.40
2022-09-03T09:30:03.497Z,0.42
2022-09-03T09:32:38.562Z,0.62
2022-09-03T09:35:12.779Z,0.62
2022-09-03T09:37:54.499Z,0.62
2022-09-03T09:40:33.339Z,0.60
2022-09-03T09:43:08.912Z,0.40
2022-09-03T09:45:44.112Z,0.60
2022-09-03T09:48:21.943Z,0.57
2022-09-03T09:53:30.428Z,0.60
2022-09-03T09:56:04.617Z,0.45
2022-09-03T09:58:38.620Z,0.70
2022-09-03T10:01:16.800Z,0.57
2022-09-03T10:03:55.578Z,0.53
2022-09-03T10:06:55.917Z,0.53
2022-09-03T10:09:32.326Z,0.80
2022-09-03T10:14:57.234Z,0.78
2022-09-03T10:17:36.913Z,0.47
2022-09-03T10:20:34.019Z,0.50
2022-09-03T10:23:14.918Z,0.50
2022-09-03T10:26:00.289Z,0.80
2022-09-03T10:28:35.395Z,0.40
2022-09-03T10:31:31.107Z,0.30
2022-09-03T10:34:08.432Z,0.30
2022-09-03T10:36:45.901Z,0.55
2022-09-03T10:39:23.031Z,0.55
2022-09-03T10:42:07.043Z,0.50
2022-09-03T10:44:51.333Z,0.42
2022-09-03T10:47:32.372Z,0.30
2022-09-03T10:50:12.835Z,0.42
2022-09-03T10:52:55.507Z,0.98
2022-09-03T10:55:32.641Z,0.23
2022-09-03T10:58:11.772Z,0.20
2022-09-03T11:00:49.757Z,0.20
2022-09-03T11:03:48.453Z,0.40
2022-09-03T11:06:25.498Z,0.45
2022-09-03T11:09:06.629Z,0.10
2022-09-03T11:11:41.658Z,0.68
2022-09-03T11:14:19.335Z,0.65
2022-09-03T11:16:55.575Z,0.55
2022-09-03T11:19:32.520Z,0.37
2022-09-03T11:22:07.990Z,0.50
2022-09-03T11:24:44.800Z,0.50
2022-09-03T11:27:26.415Z,0.78
2022-09-03T11:30:03.095Z,0.60
2022-09-03T11:32:46.669Z,0.30
2022-09-03T11:35:28.351Z,0.82
2022-09-03T11:38:04.052Z,0.65
2022-09-03T11:40:40.141Z,0.70
2022-09-03T11:43:17.902Z,1.17
2022-09-03T11:48:38.098Z,0.70
2022-09-03T11:51:25.970Z,1.17
2022-09-03T11:54:00.726Z,0.40
2022-09-03T11:56:36.888Z,0.80
2022-09-03T11:59:20.976Z,1.55
2022-09-03T12:01:57.514Z,0.93
2022-09-03T12:04:34.304Z,0.70
2022-09-03T12:07:23.702Z,0.90
2022-09-03T12:10:16.002Z,0.55
2022-09-03T12:13:24.230Z,0.70
2022-09-03T12:19:14.935Z,0.45
2022-09-03T12:21:50.916Z,0.30
2022-09-03T12:24:24.359Z,0.45
2022-09-03T12:26:59.018Z,0.40
2022-09-03T12:29:33.678Z,0.50
2022-09-03T12:32:12.671Z,1.92
2022-09-03T12:34:46.119Z,0.30
2022-09-03T12:40:08.223Z,0.40
2022-09-03T12:42:38.492Z,0.50
2022-09-03T12:45:16.111Z,0.40
2022-09-03T12:47:49.401Z,0.40
2022-09-03T12:50:24.422Z,0.62
2022-09-03T12:53:00.680Z,0.50
2022-09-03T12:55:37.196Z,0.30
2022-09-03T12:58:14.158Z,0.95
2022-09-03T13:00:51.102Z,0.40
2022-09-03T13:03:29.425Z,0.63
2022-09-03T13:06:10.023Z,0.40
2022-09-03T13:08:49.017Z,0.82
2022-09-03T13:11:31.960Z,0.40
2022-09-03T13:14:10.258Z,0.23
2022-09-03T13:17:30.553Z,0.15
2022-09-03T13:20:25.365Z,0.40
2022-09-03T13:23:15.968Z,0.30
2022-09-03T13:26:18.358Z,0.62
2022-09-03T13:29:03.361Z,0.70
2022-09-03T13:31:40.117Z,0.50
2022-09-03T13:37:52.599Z,0.70
2022-09-03T13:41:11.422Z,1.15
2022-09-03T13:44:20.922Z,0.40
2022-09-03T13:51:28.984Z,0.95
2022-09-03T13:54:48.219Z,1.37
2022-09-03T13:57:14.333Z,0.62
2022-09-03T14:01:04.923Z,0.93
2022-09-03T14:03:52.352Z,1.00
2022-09-03T14:06:50.640Z,0.60
2022-09-03T14:09:50.898Z,0.70
2022-09-03T14:12:34.323Z,0.53
2022-09-03T14:15:56.297Z,0.50
2022-09-03T14:19:04.425Z,0.60
2022-09-03T14:21:48.446Z,0.78
2022-09-03T14:28:16.432Z,0.68
2022-09-03T14:33:59.837Z,0.30
2022-09-03T14:39:32.662Z,0.78
2022-09-03T14:42:21.640Z,0.77
2022-09-03T14:45:04.334Z,0.82
2022-09-03T14:47:44.295Z,0.93
2022-09-03T14:50:29.080Z,0.82
2022-09-03T14:54:01.884Z,0.80
2022-09-03T14:56:52.828Z,0.70
2022-09-03T14:59:40.217Z,0.90
2022-09-03T15:03:16.381Z,0.62
2022-09-03T15:06:13.838Z,1.20
2022-09-03T15:08:57.316Z,1.10
2022-09-03T15:11:33.768Z,1.07
2022-09-03T15:14:10.935Z,1.40
2022-09-03T15:16:51.414Z,1.57
2022-09-03T15:19:39.916Z,1.27
2022-09-03T15:22:20.875Z,1.30
2022-09-03T15:24:58.569Z,1.05
2022-09-03T15:27:41.903Z,1.40
2022-09-03T15:30:19.162Z,0.95
2022-09-03T15:33:05.704Z,0.95
2022-09-03T15:35:56.831Z,1.43
2022-09-03T15:38:36.976Z,1.60
2022-09-03T15:41:14.216Z,2.02
2022-09-03T15:43:51.105Z,1.07
2022-09-03T15:46:39.542Z,1.15
2022-09-03T15:49:20.658Z,1.55
2022-09-03T15:52:13.880Z,1.30
2022-09-03T15:55:02.641Z,1.37
2022-09-03T15:57:51.568Z,1.22
2022-09-03T16:03:52.199Z,1.40
2022-09-03T16:06:34.310Z,1.42
2022-09-03T16:12:22.056Z,1.50
2022-09-03T16:14:58.928Z,1.55
2022-09-03T16:17:36.783Z,1.90
2022-09-03T16:20:29.664Z,1.82
2022-09-03T16:23:09.642Z,1.70
2022-09-03T16:25:51.997Z,1.87
2022-09-03T16:28:31.647Z,1.65
2022-09-03T16:31:13.191Z,1.90
2022-09-03T16:33:54.436Z,1.85
2022-09-03T16:36:39.620Z,2.02
2022-09-03T16:39:20.323Z,2.10
2022-09-03T16:42:01.341Z,2.75
2022-09-03T16:44:41.376Z,2.75
2022-09-03T16:47:18.933Z,2.22
2022-09-03T16:50:12.870Z,2.70
2022-09-03T16:52:50.725Z,3.37
2022-09-03T16:58:13.975Z,3.20
2022-09-03T17:00:58.874Z,2.80
2022-09-03T17:04:25.819Z,3.52
2022-09-03T17:09:47.707Z,6.70
2022-09-03T17:12:25.828Z,3.95
2022-09-03T17:15:39.132Z,4.45
2022-09-03T17:21:20.861Z,3.72
2022-09-03T17:24:11.331Z,3.83
2022-09-03T17:26:52.241Z,3.10
2022-09-03T17:29:45.717Z,2.70
2022-09-03T17:32:26.596Z,3.12
2022-09-03T17:35:09.294Z,2.70
2022-09-03T17:37:55.298Z,2.95
2022-09-03T17:40:36.155Z,3.35
2022-09-03T17:43:14.670Z,3.05
2022-09-03T17:45:52.130Z,3.00
2022-09-03T17:48:45.417Z,2.22
2022-09-03T17:51:28.964Z,3.05
2022-09-03T17:56:59.926Z,3.60
2022-09-03T17:59:38.909Z,2.60
2022-09-03T18:02:18.803Z,3.00
2022-09-03T18:04:55.850Z,3.42
2022-09-03T18:07:32.074Z,2.37
2022-09-03T18:10:14.220Z,2.70
2022-09-03T18:13:01.340Z,1.92
2022-09-03T18:15:29.450Z,2.22
2022-09-03T18:18:05.350Z,2.45
2022-09-03T18:21:22.878Z,2.43
2022-09-03T18:23:59.843Z,2.80
2022-09-03T18:26:53.011Z,2.58
2022-09-03T18:29:51.176Z,2.20
2022-09-03T18:32:40.418Z,1.98
2022-09-03T18:35:31.497Z,2.15
2022-09-03T18:38:24.169Z,2.40
2022-09-03T18:41:17.589Z,2.30
2022-09-03T18:44:12.692Z,2.65
2022-09-03T18:48:02.983Z,3.10
2022-09-03T18:50:03.057Z,2.50
2022-09-03T18:52:56.393Z,2.87
2022-09-03T18:55:50.961Z,2.83
2022-09-03T18:58:45.114Z,2.52
2022-09-03T19:01:39.396Z,2.33
2022-09-03T19:04:33.682Z,2.58
2022-09-03T19:07:28.500Z,2.70
2022-09-03T19:10:21.809Z,2.47
2022-09-03T19:13:25.136Z,2.12
2022-09-03T19:16:19.217Z,2.42
2022-09-03T19:19:25.515Z,2.00
2022-09-03T19:22:18.368Z,2.58
2022-09-03T19:25:13.564Z,2.12
2022-09-03T19:28:07.520Z,1.72
2022-09-03T19:31:03.541Z,2.58
2022-09-03T19:33:57.329Z,2.37
2022-09-03T19:36:50.813Z,2.62
2022-09-03T19:39:48.242Z,2.17
2022-09-03T19:42:43.191Z,2.00
2022-09-03T19:45:37.300Z,1.47
2022-09-03T19:48:32.502Z,0.95
2022-09-03T19:51:26.329Z,0.98
2022-09-03T19:54:19.003Z,0.75
2022-09-03T19:57:10.643Z,0.90
2022-09-03T20:00:03.534Z,0.80
2022-09-03T20:02:57.775Z,0.90
2022-09-03T20:05:48.542Z,1.15
2022-09-03T20:08:41.154Z,1.20
2022-09-03T20:11:19.085Z,2.05
2022-09-03T20:16:46.157Z,2.25
2022-09-03T20:19:23.720Z,2.58
2022-09-03T20:21:59.705Z,2.55
2022-09-03T20:27:25.905Z,2.60
2022-09-03T20:30:03.733Z,2.55
2022-09-03T20:32:46.681Z,3.05
2022-09-03T20:35:23.200Z,3.35
2022-09-03T20:38:00.562Z,3.75
2022-09-03T20:40:39.524Z,3.12
2022-09-03T20:43:38.914Z,3.00
2022-09-03T20:46:17.406Z,3.50
2022-09-03T20:48:56.033Z,2.95
2022-09-03T20:51:33.842Z,2.70
2022-09-03T20:54:17.186Z,2.98
2022-09-03T20:57:14.113Z,2.62
2022-09-03T21:00:00.706Z,2.90
2022-09-03T21:02:42.580Z,2.95
2022-09-03T21:05:20.081Z,3.20
2022-09-03T21:08:00.048Z,2.75
2022-09-03T21:10:36.206Z,3.00
2022-09-03T21:13:14.384Z,3.30
2022-09-03T21:15:56.421Z,2.50
2022-09-03T21:18:32.407Z,2.72
2022-09-03T21:23:54.156Z,3.25
2022-09-03T21:26:30.109Z,2.62
2022-09-03T21:29:06.561Z,2.40
2022-09-03T21:31:42.668Z,2.98
2022-09-03T21:34:19.372Z,2.50
2022-09-03T21:36:53.600Z,2.67
2022-09-03T21:39:31.049Z,2.40
2022-09-03T21:42:07.057Z,2.30
2022-09-03T21:44:55.355Z,2.58
2022-09-03T21:47:31.395Z,2.83
2022-09-03T21:50:13.082Z,2.22
2022-09-03T21:52:47.799Z,2.58
2022-09-03T21:55:25.418Z,2.10
2022-09-03T21:58:09.182Z,2.42
2022-09-03T22:00:42.235Z,2.45
2022-09-03T22:03:15.603Z,2.37
2022-09-03T22:05:51.551Z,2.37
2022-09-03T22:11:12.451Z,2.42
2022-09-03T22:13:48.713Z,2.70
2022-09-03T22:16:24.685Z,2.77
2022-09-03T22:18:58.696Z,2.90
2022-09-03T22:21:36.119Z,2.33
2022-09-03T22:24:17.172Z,2.42
2022-09-03T22:26:54.131Z,2.60
2022-09-03T22:29:35.498Z,2.45
2022-09-03T22:35:02.858Z,2.42
2022-09-03T22:37:48.566Z,2.42
2022-09-03T22:40:25.229Z,2.40
2022-09-03T22:43:06.941Z,2.72
2022-09-03T22:45:49.675Z,2.67
2022-09-03T22:48:27.600Z,2.55
2022-09-03T22:53:42.891Z,3.37
2022-09-03T22:56:20.499Z,3.00
2022-09-03T22:58:57.815Z,3.20
2022-09-03T23:01:34.973Z,3.50
2022-09-03T23:04:13.120Z,3.60
2022-09-03T23:06:52.934Z,2.98
2022-09-03T23:09:28.974Z,3.10
2022-09-03T23:12:06.343Z,2.90
2022-09-03T23:14:44.160Z,3.80
2022-09-03T23:17:22.434Z,2.83
2022-09-03T23:20:00.821Z,3.10
2022-09-03T23:22:38.829Z,2.87
2022-09-03T23:25:15.588Z,4.00
2022-09-03T23:27:53.326Z,2.95
2022-09-03T23:30:26.612Z,2.77
2022-09-03T23:33:01.365Z,3.02
2022-09-03T23:35:37.295Z,4.45
2022-09-03T23:38:15.960Z,3.47
2022-09-03T23:40:51.621Z,2.90
2022-09-03T23:43:51.021Z,2.85
2022-09-03T23:46:28.055Z,2.10
2022-09-03T23:49:09.305Z,2.70
2022-09-03T23:51:49.029Z,3.30
2022-09-03T23:54:27.554Z,2.90
2022-09-03T23:57:25.668Z,2.60
